Time;durP1;ratioP1;P1;durP2;ratioP2;P2;SDS_P1;SDS_P2;PMS_P1;PMS_P2;Temp;Humidity;BMP_temperature;BMP_pressure;BME280_temperature;BME280_humidity;BME280_pressure;Samples;Min_cycle;Max_cycle;Signal;HPM_P1;HPM_P2
2022/02/09 00:00:26;;;;;;;1.85;1.02;;;;;;;26.40;28.81;97923.81;4988677;28;20021;-56
2022/02/09 00:03:08;;;;;;;2.35;1.45;;;;;;;26.41;28.90;97924.66;4993439;28;20036;-59
2022/02/09 00:05:53;;;;;;;1.73;1.15;;;;;;;26.42;28.86;97926.38;4993499;28;20037;-55
2022/02/09 00:08:21;;;;;;;1.92;1.20;;;;;;;26.40;28.86;97915.06;4992663;28;20033;-56
2022/02/09 00:10:48;;;;;;;3.25;1.30;;;;;;;26.41;28.87;97911.50;4994753;28;20147;-58
2022/02/09 00:13:38;;;;;;;2.05;1.35;;;;;;;26.41;28.69;97914.16;4996537;28;20039;-57
2022/02/09 00:18:46;;;;;;;1.90;1.20;;;;;;;26.41;28.76;97916.78;4998762;28;20041;-57
2022/02/09 00:24:17;;;;;;;2.17;1.38;;;;;;;26.40;28.82;97930.84;4991313;28;20256;-59
2022/02/09 00:27:05;;;;;;;1.60;1.15;;;;;;;26.40;28.86;97931.72;5010186;28;20041;-57
2022/02/09 00:42:31;;;;;;;1.83;1.27;;;;;;;26.38;28.89;97937.94;4997355;28;20129;-57
2022/02/09 00:59:05;;;;;;;2.63;1.30;;;;;;;26.35;28.74;97931.88;5003305;28;20187;-56
2022/02/09 01:57:46;;;;;;;1.45;0.80;;;;;;;26.29;28.74;97876.94;4980329;28;20255;-57
2022/02/09 02:00:12;;;;;;;1.38;1.00;;;;;;;26.29;28.77;97882.19;4992841;28;20423;-58
2022/02/09 02:02:38;;;;;;;1.48;1.08;;;;;;;26.29;28.66;97882.19;4993340;28;20029;-58
2022/02/09 02:05:03;;;;;;;1.15;0.98;;;;;;;26.29;28.73;97876.94;4982896;28;20585;-57
2022/02/09 02:07:51;;;;;;;1.67;1.05;;;;;;;26.28;28.79;97869.94;4996337;28;20610;-55
2022/02/09 02:10:23;;;;;;;1.45;0.80;;;;;;;26.29;28.71;97868.16;4991869;28;20111;-58
2022/02/09 02:12:51;;;;;;;1.30;0.95;;;;;;;26.29;28.78;97866.41;5010566;28;20029;-58
2022/02/09 02:15:29;;;;;;;1.08;0.90;;;;;;;26.26;28.71;97855.16;4994078;28;20668;-58
2022/02/09 02:17:56;;;;;;;1.20;0.90;;;;;;;26.27;28.63;97857.72;4991571;28;20105;-58
2022/02/09 02:21:18;;;;;;;1.88;1.05;;;;;;;26.27;28.81;97851.63;4993222;28;20275;-57
2022/02/09 02:26:13;;;;;;;1.08;0.77;;;;;;;26.26;28.69;97845.50;4993758;28;20176;-56
2022/02/09 02:35:01;;;;;;;1.00;0.90;;;;;;;26.26;28.80;97842.88;4991073;28;20515;-57
2022/02/09 02:59:21;;;;;;;1.52;0.63;;;;;;;26.23;28.84;97840.31;5001395;28;20171;-57
2022/02/09 03:10:28;;;;;;;1.90;0.70;;;;;;;26.23;28.87;97842.94;4997626;28;20134;-56
2022/02/09 03:18:18;;;;;;;0.85;0.73;;;;;;;26.20;28.76;97833.41;4996954;28;20110;-58
2022/02/09 03:20:54;;;;;;;0.90;0.70;;;;;;;26.21;28.79;97821.16;4997459;28;20025;-57
2022/02/09 03:43:20;;;;;;;1.20;0.80;;;;;;;26.19;28.71;97802.81;5006002;28;20048;-58
2022/02/09 03:58:15;;;;;;;0.93;0.80;;;;;;;26.18;28.70;97808.13;5010143;28;20042;-57
2022/02/09 04:00:41;;;;;;;1.75;1.02;;;;;;;26.17;28.70;97807.28;5009802;28;20033;-56
2022/02/09 04:03:11;;;;;;;1.13;0.60;;;;;;;26.18;28.58;97805.50;5007092;28;20484;-57
2022/02/09 04:05:37;;;;;;;1.08;0.77;;;;;;;26.17;28.79;97802.03;4996356;28;20029;-58
2022/02/09 04:08:03;;;;;;;1.27;0.80;;;;;;;26.17;28.90;97798.53;4994557;28;20092;-58
2022/02/09 04:10:37;;;;;;;0.98;0.60;;;;;;;26.18;28.75;97800.25;5011146;28;20659;-56
2022/02/09 04:13:14;;;;;;;1.50;1.13;;;;;;;26.17;28.93;97806.41;4997060;28;20041;-59
2022/02/09 04:15:50;;;;;;;4.60;1.80;;;;;;;26.17;28.93;97798.53;4994748;28;20048;-57
2022/02/09 04:39:55;;;;;;;1.02;0.90;;;;;;;26.13;28.95;97812.69;5012274;28;20029;-56
2022/02/09 04:42:43;;;;;;;0.98;0.80;;;;;;;26.12;28.93;97806.56;5009142;28;20447;-56
2022/02/09 04:50:57;;;;;;;1.10;0.80;;;;;;;26.13;28.87;97807.44;4988601;28;20026;-57
2022/02/09 04:54:13;;;;;;;1.98;0.90;;;;;;;26.10;28.79;97801.38;5004677;28;20447;-56
2022/02/09 04:56:40;;;;;;;1.83;0.93;;;;;;;26.12;28.75;97805.75;5010977;28;20037;-57
2022/02/09 05:26:02;;;;;;;1.15;0.85;;;;;;;26.08;28.75;97805.84;5010320;28;20171;-56
2022/02/09 05:28:27;;;;;;;1.42;0.80;;;;;;;26.08;28.82;97805.84;5007004;28;20056;-58
2022/02/09 05:30:53;;;;;;;1.50;0.93;;;;;;;26.08;28.83;97805.84;5008085;28;20095;-58
2022/02/09 05:33:18;;;;;;;0.80;0.80;;;;;;;26.08;28.73;97800.59;5020574;28;20598;-59
2022/02/09 05:35:44;;;;;;;1.20;0.90;;;;;;;26.07;28.83;97793.63;5007515;28;20038;-58
2022/02/09 05:38:11;;;;;;;1.75;0.82;;;;;;;26.07;28.77;97804.16;5012001;28;20033;-56
2022/02/09 05:40:37;;;;;;;0.93;0.82;;;;;;;26.08;28.77;97804.97;5009220;28;20147;-57
2022/02/09 05:43:02;;;;;;;0.70;0.60;;;;;;;26.08;28.70;97804.97;5003905;28;20021;-56
2022/02/09 05:45:40;;;;;;;1.08;0.80;;;;;;;26.06;28.71;97797.19;5007593;28;20795;-57
2022/02/09 05:49:10;;;;;;;1.73;0.90;;;;;;;26.08;28.78;97800.59;5010906;28;20063;-59
2022/02/09 05:51:18;;;;;;;1.27;0.80;;;;;;;26.07;28.71;97793.63;5009310;28;20025;-57
2022/02/09 05:56:32;;;;;;;1.27;0.70;;;;;;;26.08;28.66;97804.97;4999417;28;20148;-57
2022/02/09 06:01:32;;;;;;;1.30;0.93;;;;;;;26.06;28.77;97807.69;4992530;28;20087;-55
2022/02/09 06:03:58;;;;;;;1.58;0.90;;;;;;;26.07;28.76;97809.41;4988702;28;20534;-55
2022/02/09 06:06:23;;;;;;;1.67;0.70;;;;;;;26.06;28.67;97807.69;4996031;28;20041;-58
2022/02/09 06:08:48;;;;;;;1.40;0.90;;;;;;;26.07;28.77;97808.53;4991739;28;20042;-58
2022/02/09 06:19:46;;;;;;;1.02;0.70;;;;;;;26.05;28.84;97816.47;4996191;28;20268;-59
2022/02/09 06:22:11;;;;;;;1.65;0.90;;;;;;;26.06;28.79;97809.44;4980517;28;20468;-58
2022/02/09 06:24:39;;;;;;;1.08;0.82;;;;;;;26.06;28.64;97812.09;4993321;28;20037;-58
2022/02/09 06:27:05;;;;;;;2.78;0.90;;;;;;;26.04;28.89;97806.88;4996285;28;20052;-57
2022/02/09 06:29:31;;;;;;;1.88;0.90;;;;;;;26.05;28.76;97811.22;4983310;28;20305;-58
2022/02/09 06:31:56;;;;;;;1.98;0.98;;;;;;;26.04;28.96;97812.13;4989472;28;20033;-56
2022/02/09 06:34:22;;;;;;;4.38;0.70;;;;;;;26.06;28.69;97812.09;4994079;28;20872;-58
2022/02/09 06:36:58;;;;;;;1.25;0.80;;;;;;;26.05;28.71;97813.84;4992938;28;20021;-54
2022/02/09 06:39:25;;;;;;;1.83;0.98;;;;;;;26.06;28.84;97812.94;4974236;28;20029;-58
2022/02/09 06:41:50;;;;;;;0.90;0.70;;;;;;;26.04;28.81;97812.13;4990275;28;20091;-57
2022/02/09 06:44:16;;;;;;;0.93;0.70;;;;;;;26.06;28.69;97815.56;4994987;28;20739;-57
2022/02/09 06:46:42;;;;;;;0.80;0.55;;;;;;;26.04;28.68;97808.63;4996295;28;20033;-56
2022/02/09 06:49:08;;;;;;;2.38;0.75;;;;;;;26.07;28.71;97819.03;4986204;28;20017;-56
2022/02/09 06:51:36;;;;;;;1.20;0.60;;;;;;;26.07;28.86;97829.53;4992967;28;20028;-57
2022/02/09 06:54:07;;;;;;;1.17;0.70;;;;;;;26.05;28.82;97821.72;4989815;28;20111;-57
2022/02/09 06:56:58;;;;;;;1.83;0.90;;;;;;;26.05;28.81;97821.72;4989724;28;20034;-55
2022/02/09 06:59:30;;;;;;;3.53;0.95;;;;;;;26.06;28.80;97822.59;5007365;28;20128;-57
2022/02/09 07:02:03;;;;;;;0.95;0.77;;;;;;;26.05;28.84;97819.09;4992356;28;20026;-58
2022/02/09 07:04:28;;;;;;;0.93;0.80;;;;;;;26.06;28.77;97815.56;4995314;28;20064;-57
2022/02/09 07:06:55;;;;;;;0.90;0.70;;;;;;;26.06;28.79;97819.97;4992758;28;20028;-57
2022/02/09 07:09:20;;;;;;;2.03;0.50;;;;;;;26.07;28.63;97819.91;4991230;28;20032;-58
2022/02/09 07:11:46;;;;;;;2.75;0.60;;;;;;;26.05;28.82;97811.22;4989044;28;20029;-57
2022/02/09 07:14:11;;;;;;;0.93;0.70;;;;;;;26.06;28.86;97812.94;4989481;28;20041;-58
2022/02/09 07:16:38;;;;;;;1.40;0.80;;;;;;;26.06;28.70;97812.94;4983073;28;20258;-57
2022/02/09 07:19:07;;;;;;;2.70;0.77;;;;;;;26.06;28.75;97812.94;4991266;28;20029;-58
2022/02/09 07:21:33;;;;;;;3.53;1.20;;;;;;;26.06;28.74;97807.69;4991499;28;20071;-57
2022/02/09 07:24:01;;;;;;;1.15;0.80;;;;;;;26.07;28.77;97812.03;4989785;28;20500;-58
2022/02/09 07:26:29;;;;;;;4.85;1.15;;;;;;;26.07;28.55;97817.28;4990107;28;20088;-57
2022/02/09 07:28:56;;;;;;;7.93;1.65;;;;;;;26.08;28.87;97816.34;4991186;28;20144;-58
2022/02/09 07:31:22;;;;;;;4.00;1.40;;;;;;;26.08;28.68;97805.84;5003080;28;20144;-58
2022/02/09 07:33:47;;;;;;;19.10;2.10;;;;;;;26.09;28.74;97810.19;4998560;28;20033;-57
2022/02/09 07:36:13;;;;;;;7.60;2.15;;;;;;;26.09;28.75;97807.56;4966582;28;20142;-59
2022/02/09 07:38:40;;;;;;;12.05;1.95;;;;;;;26.09;28.78;97801.47;4988314;28;20061;-59
2022/02/09 07:41:06;;;;;;;8.65;2.28;;;;;;;26.09;28.54;97799.69;4983792;28;20787;-58
2022/02/09 07:44:01;;;;;;;4.47;2.10;;;;;;;26.10;28.71;97798.75;4990860;28;20076;-54
2022/02/09 07:51:42;;;;;;;7.70;2.20;;;;;;;26.14;28.59;97798.66;4991560;28;20159;-58
2022/02/09 07:54:09;;;;;;;5.43;2.38;;;;;;;26.13;28.56;97797.81;4989102;28;20092;-57
2022/02/09 07:56:39;;;;;;;7.53;2.40;;;;;;;26.16;28.76;97792.41;4993083;28;20063;-58
2022/02/09 07:59:07;;;;;;;5.15;2.33;;;;;;;26.19;28.73;97791.44;4993603;28;20959;-56
2022/02/09 08:01:32;;;;;;;6.85;2.53;;;;;;;26.19;28.66;97786.19;4993263;28;20037;-57
2022/02/09 08:03:58;;;;;;;5.28;2.60;;;;;;;26.20;28.63;97787.91;4991216;28;20526;-57
2022/02/09 08:06:26;;;;;;;4.20;2.25;;;;;;;26.23;28.73;97787.78;5001730;28;20029;-58
2022/02/09 08:08:54;;;;;;;6.63;2.50;;;;;;;26.24;28.59;97789.50;5008451;28;20245;-58
2022/02/09 08:11:27;;;;;;;5.63;2.22;;;;;;;26.25;28.63;97780.69;5014861;28;20040;-57
2022/02/09 08:32:51;;;;;;;7.10;2.85;;;;;;;26.34;28.35;97780.38;4990430;28;20030;-58
2022/02/09 08:35:16;;;;;;;5.20;2.50;;;;;;;26.35;28.49;97768.94;4993680;28;20033;-58
2022/02/09 08:37:42;;;;;;;6.05;2.80;;;;;;;26.37;28.45;97760.13;4989232;28;21267;-58
2022/02/09 08:40:11;;;;;;;5.45;2.47;;;;;;;26.39;28.60;97763.56;5000288;28;20075;-58
2022/02/09 08:42:38;;;;;;;5.50;2.38;;;;;;;26.41;28.49;97769.59;4996741;28;20812;-58
2022/02/09 08:45:08;;;;;;;7.40;2.65;;;;;;;26.43;28.52;97765.16;5009321;28;20467;-59
2022/02/09 08:47:33;;;;;;;5.63;2.35;;;;;;;26.44;28.46;97764.22;4992040;28;21455;-59
2022/02/09 08:49:58;;;;;;;7.22;2.65;;;;;;;26.46;28.50;97762.38;4993584;28;20056;-60
2022/02/09 08:52:24;;;;;;;5.22;2.33;;;;;;;26.47;28.61;97758.84;4996402;28;20104;-58
2022/02/09 08:54:52;;;;;;;5.55;2.20;;;;;;;26.49;28.65;97751.75;4992921;28;21072;-58
2022/02/09 08:57:20;;;;;;;4.85;2.30;;;;;;;26.50;28.59;97750.81;4995527;28;20033;-59
2022/02/09 08:59:45;;;;;;;4.88;2.00;;;;;;;26.52;28.63;97756.88;4991934;28;20029;-58
2022/02/09 09:02:13;;;;;;;6.88;2.30;;;;;;;26.53;28.52;97753.34;4988555;28;20044;-59
2022/02/09 09:04:48;;;;;;;9.77;3.58;;;;;;;26.48;25.37;97750.03;4993113;28;20052;-57
2022/02/09 09:07:20;;;;;;;10.38;3.53;;;;;;;26.29;23.59;97745.53;5008621;28;20178;-58
2022/02/09 09:10:05;;;;;;;8.65;3.75;;;;;;;26.15;22.53;97747.81;5003362;28;20021;-58
2022/02/09 10:04:03;;;;;;;17.00;3.47;;;;;;;27.16;25.80;97725.31;4984794;28;20026;-63
2022/02/09 10:34:24;;;;;;;6.30;2.85;;;;;;;27.37;26.21;97712.97;5009374;28;20087;-61
2022/02/09 10:37:01;;;;;;;6.32;2.83;;;;;;;27.34;26.04;97715.75;5008298;28;20076;-62
2022/02/09 10:39:46;;;;;;;11.32;2.97;;;;;;;27.33;26.09;97706.16;5008019;28;20586;-62
2022/02/09 10:45:29;;;;;;;5.78;2.85;;;;;;;27.27;26.36;97680.13;4996808;28;20053;-63
2022/02/09 10:47:52;;;;;;;7.43;2.78;;;;;;;27.27;26.28;97691.47;5003747;28;20921;-63
2022/02/09 10:50:25;;;;;;;7.82;2.63;;;;;;;27.27;26.49;97680.13;5010340;28;20033;-62
2022/02/09 10:52:51;;;;;;;7.50;2.80;;;;;;;27.20;26.42;97662.88;5007239;28;20053;-62
2022/02/09 10:55:38;;;;;;;6.93;2.60;;;;;;;27.22;26.66;97677.69;4990948;28;20116;-63
2022/02/09 10:58:12;;;;;;;5.55;2.53;;;;;;;27.20;26.63;97663.75;4998398;28;20570;-62
2022/02/09 11:00:43;;;;;;;6.22;2.60;;;;;;;27.19;26.67;97655.94;5008090;28;20032;-62
2022/02/09 11:03:15;;;;;;;6.90;2.95;;;;;;;27.19;26.82;97653.28;5008583;28;20060;-62
2022/02/09 11:05:48;;;;;;;5.43;2.40;;;;;;;27.13;26.72;97647.38;4985069;28;20041;-62
2022/02/09 11:08:13;;;;;;;4.65;2.72;;;;;;;27.14;26.73;97642.97;4999791;28;20071;-63
2022/02/09 11:10:39;;;;;;;6.32;2.63;;;;;;;27.15;26.90;97642.03;5008205;28;20083;-61
2022/02/09 11:13:11;;;;;;;7.45;2.42;;;;;;;27.14;26.87;97645.59;5009133;28;20726;-63
2022/02/09 11:15:40;;;;;;;6.60;2.33;;;;;;;27.11;26.96;97638.69;5009474;28;20065;-63
2022/02/09 11:18:07;;;;;;;6.57;2.50;;;;;;;27.11;27.00;97638.69;4963819;28;20941;-62
2022/02/09 11:20:32;;;;;;;6.35;2.40;;;;;;;27.10;27.05;97637.00;4985074;28;20045;-62
2022/02/09 11:22:58;;;;;;;4.57;2.40;;;;;;;27.11;27.03;97635.19;4964907;28;21573;-63
2022/02/09 11:25:28;;;;;;;6.45;2.30;;;;;;;27.11;27.15;97628.19;4991312;28;20029;-62
2022/02/09 11:28:33;;;;;;;5.03;2.42;;;;;;;27.10;27.26;97626.47;4985110;28;20037;-62
2022/02/09 11:31:09;;;;;;;11.52;2.92;;;;;;;27.09;27.34;97624.78;5007915;28;20025;-63
2022/02/09 11:34:03;;;;;;;14.48;3.42;;;;;;;27.08;27.19;97617.78;5002395;28;20029;-62
2022/02/09 11:36:40;;;;;;;18.83;4.82;;;;;;;27.08;27.38;97622.22;5023821;28;20029;-62
2022/02/09 11:39:18;;;;;;;16.02;4.38;;;;;;;27.08;27.40;97616.94;4989545;28;20045;-63
2022/02/09 11:42:09;;;;;;;13.13;4.22;;;;;;;27.07;27.51;97613.44;4997211;28;20540;-63
2022/02/09 11:45:13;;;;;;;18.65;3.90;;;;;;;27.07;27.65;97612.59;4991070;28;20443;-63
2022/02/09 11:48:05;;;;;;;15.48;3.78;;;;;;;27.06;27.60;97609.13;5002050;28;20101;-63
2022/02/09 12:08:47;;;;;;;11.70;3.63;;;;;;;27.06;27.95;97598.59;4996005;28;20106;-62
2022/02/09 12:10:18;;;;;;;13.70;3.55;;;;;;;27.06;28.12;97576.69;4995467;28;20154;-62
2022/02/09 12:13:00;;;;;;;12.90;3.60;;;;;;;27.04;28.13;97573.28;5028988;28;20032;-62
2022/02/09 12:18:26;;;;;;;;;;;;;;;27.07;28.33;97567.84;4977859;28;20041;-63
2022/02/09 12:21:01;;;;;;;9.73;3.25;;;;;;;27.07;28.40;97574.00;5003346;28;19924;-62
2022/02/09 12:23:38;;;;;;;9.40;3.53;;;;;;;27.07;28.31;97570.50;5006510;28;20021;-62
2022/02/09 12:26:08;;;;;;;10.65;3.47;;;;;;;27.05;28.35;97565.31;5001370;28;20026;-62
2022/02/09 12:28:39;;;;;;;9.02;3.53;;;;;;;27.04;28.49;97568.84;5010461;28;20171;-63
2022/02/09 12:31:12;;;;;;;7.18;2.75;;;;;;;27.05;28.53;97557.44;4991177;28;20546;-63
2022/02/09 12:33:43;;;;;;;6.30;2.78;;;;;;;27.06;28.61;97556.50;5002783;28;20025;-63
2022/02/09 12:36:11;;;;;;;6.22;2.30;;;;;;;27.07;28.44;97552.06;4981180;28;20040;-62
2022/02/09 12:38:36;;;;;;;9.75;3.42;;;;;;;27.08;28.59;97538.03;5015712;28;20044;-61
2022/02/09 12:41:14;;;;;;;8.00;2.70;;;;;;;27.08;28.71;97540.66;4997965;28;20033;-63
2022/02/09 12:44:03;;;;;;;5.78;2.67;;;;;;;27.08;28.72;97538.84;4996902;28;20021;-63
2022/02/09 12:46:31;;;;;;;7.03;2.30;;;;;;;27.08;28.58;97538.84;4989519;28;20037;-63
2022/02/09 12:49:17;;;;;;;9.10;2.67;;;;;;;27.07;28.59;97537.16;4983029;28;20035;-63
2022/02/09 12:51:44;;;;;;;6.05;2.63;;;;;;;27.07;28.62;97537.16;4996322;28;20032;-63
2022/02/09 12:54:10;;;;;;;5.68;2.40;;;;;;;27.08;28.77;97528.34;4995604;28;20083;-61
2022/02/09 12:56:40;;;;;;;6.10;2.53;;;;;;;27.09;28.64;97530.06;4998201;28;20030;-62
2022/02/09 12:59:10;;;;;;;5.40;2.40;;;;;;;27.10;28.79;97526.50;4997219;28;20031;-64
2022/02/09 13:01:49;;;;;;;7.15;2.60;;;;;;;27.10;28.76;97521.25;4995347;28;22381;-63
2022/02/09 13:04:36;;;;;;;7.78;2.38;;;;;;;27.10;28.77;97515.97;5003687;28;20029;-63
2022/02/09 13:07:13;;;;;;;6.35;2.50;;;;;;;27.12;28.75;97513.28;5003565;28;20022;-63
2022/02/09 13:09:39;;;;;;;4.97;2.15;;;;;;;27.12;28.79;97514.13;4992722;28;20032;-62
2022/02/09 13:12:05;;;;;;;7.95;2.42;;;;;;;27.10;28.81;97510.72;4974432;28;20029;-62
2022/02/09 13:14:36;;;;;;;6.32;2.20;;;;;;;27.12;28.80;97503.59;4996351;28;20041;-63
2022/02/09 13:22:41;;;;;;;8.45;2.40;;;;;;;27.12;29.03;97493.06;4997422;28;20566;-63
2022/02/09 14:15:23;;;;;;;3.63;1.90;;;;;;;27.12;29.39;97460.66;5010377;28;20040;-63
2022/02/09 14:18:18;;;;;;;2.50;1.30;;;;;;;27.11;29.36;97448.41;5011115;28;20033;-63
2022/02/09 14:58:10;;;;;;;2.63;1.52;;;;;;;27.12;29.64;97435.19;5007335;28;20887;-62
2022/02/09 15:00:40;;;;;;;3.30;1.73;;;;;;;27.12;29.58;97435.19;5008318;28;20029;-62
2022/02/09 15:03:46;;;;;;;3.10;1.40;;;;;;;27.12;29.59;97434.34;4998909;28;20266;-61
2022/02/09 15:06:28;;;;;;;2.83;1.42;;;;;;;27.11;29.56;97430.88;5003089;28;20080;-63
2022/02/09 15:08:54;;;;;;;2.63;1.10;;;;;;;27.11;29.75;97425.59;5006878;28;20050;-62
2022/02/09 15:24:29;;;;;;;2.38;1.60;;;;;;;27.12;29.80;97418.56;5001033;28;20702;-63
2022/02/09 15:26:57;;;;;;;2.20;1.15;;;;;;;27.12;29.62;97414.16;4999761;28;20091;-61
2022/02/09 15:29:23;;;;;;;2.20;1.33;;;;;;;27.12;29.72;97414.16;5005620;28;20053;-63
2022/02/09 15:31:54;;;;;;;3.60;1.50;;;;;;;27.11;29.64;97412.44;5028313;28;20028;-63
2022/02/09 15:34:30;;;;;;;2.25;1.15;;;;;;;27.12;29.67;97403.63;5012150;28;20053;-63
2022/02/09 15:37:04;;;;;;;2.83;1.40;;;;;;;27.13;29.82;97404.47;5008870;28;20025;-62
2022/02/09 15:39:34;;;;;;;3.13;1.27;;;;;;;27.12;29.78;97402.78;4995758;28;20029;-62
2022/02/09 15:42:27;;;;;;;1.98;1.27;;;;;;;27.13;29.68;97404.47;5002160;28;20029;-62
2022/02/09 16:22:12;;;;;;;2.05;1.10;;;;;;;27.09;29.86;97390.63;5014109;28;20055;-62
2022/02/09 16:25:12;;;;;;;2.17;1.10;;;;;;;27.12;29.88;97398.34;5010875;28;20029;-62
2022/02/09 16:46:33;;;;;;;2.40;1.20;;;;;;;27.09;29.97;97403.78;4995828;28;20072;-62
2022/02/09 16:49:07;;;;;;;2.25;1.10;;;;;;;27.10;29.84;97409.88;5012889;28;20064;-62
2022/02/09 16:51:43;;;;;;;1.23;0.82;;;;;;;27.09;29.98;97411.69;5011869;28;20035;-62
2022/02/09 16:54:25;;;;;;;1.52;1.10;;;;;;;27.09;29.88;97414.31;5003106;28;20718;-62
2022/02/09 17:21:08;;;;;;;1.42;0.70;;;;;;;27.07;29.83;97410.03;5008775;28;20036;-61
2022/02/09 17:23:34;;;;;;;1.75;1.00;;;;;;;27.08;29.88;97417.00;5010987;28;20038;-62
2022/02/09 17:25:59;;;;;;;1.08;0.80;;;;;;;27.07;29.88;97418.78;5012407;28;20045;-61
2022/02/09 17:28:26;;;;;;;1.35;0.80;;;;;;;27.06;29.84;97419.72;5025769;28;20021;-62
2022/02/09 17:33:36;;;;;;;2.20;0.82;;;;;;;27.07;29.77;97423.19;5010568;28;20681;-63
2022/02/09 17:36:12;;;;;;;1.50;0.93;;;;;;;27.04;29.84;97413.66;5011653;28;20828;-62
2022/02/09 17:38:52;;;;;;;1.45;1.02;;;;;;;27.06;29.71;97414.44;5013342;28;20061;-62
2022/02/09 17:57:34;;;;;;;2.00;1.00;;;;;;;27.04;29.81;97431.25;5012810;28;20025;-62
2022/02/09 18:00:16;;;;;;;1.73;0.98;;;;;;;27.04;29.73;97421.56;5011485;28;20511;-62
2022/02/09 18:02:52;;;;;;;1.60;0.80;;;;;;;27.03;29.74;97422.47;5009875;28;20132;-61
2022/02/09 18:08:09;;;;;;;0.73;0.60;;;;;;;27.02;29.77;97423.41;5012740;28;20085;-62
2022/02/09 18:31:41;;;;;;;1.75;0.82;;;;;;;26.98;29.65;97430.63;5006620;28;20033;-63
2022/02/09 18:34:22;;;;;;;1.10;0.75;;;;;;;26.98;29.67;97435.88;4997761;28;20258;-62
2022/02/09 18:48:26;;;;;;;6.28;4.30;;;;;;;26.53;23.88;97424.78;4961367;28;20033;-62
2022/02/09 19:04:23;;;;;;;8.55;2.80;;;;;;;26.00;26.53;97408.72;4978891;28;20424;-65
2022/02/09 19:17:42;;;;;;;5.38;2.75;;;;;;;26.15;27.45;97406.31;4989933;28;20156;-64
2022/02/09 19:31:11;;;;;;;10.88;2.92;;;;;;;26.31;27.79;97396.84;5002738;28;20028;-64
2022/02/09 19:47:04;;;;;;;4.35;2.35;;;;;;;26.47;28.08;97399.63;4990056;28;21035;-64
2022/02/09 19:57:15;;;;;;;3.85;2.13;;;;;;;26.53;28.13;97390.59;4979886;28;20034;-64
2022/02/09 19:59:41;;;;;;;5.28;2.20;;;;;;;26.53;28.24;97380.09;4990511;28;20083;-64
2022/02/09 20:02:08;;;;;;;4.35;2.00;;;;;;;26.55;28.24;97388.75;4995685;28;20037;-64
2022/02/09 20:04:34;;;;;;;4.80;2.20;;;;;;;26.56;28.13;97385.22;4989490;28;20112;-65
2022/02/09 20:07:00;;;;;;;4.20;2.05;;;;;;;26.58;28.27;97383.34;4988780;28;20075;-68
2022/02/09 20:09:26;;;;;;;3.88;1.98;;;;;;;26.59;28.22;97385.06;4958047;28;20370;-64
2022/02/09 20:11:52;;;;;;;7.57;2.40;;;;;;;26.59;28.36;97379.78;4989630;28;20060;-64
2022/02/09 20:14:18;;;;;;;4.80;2.20;;;;;;;26.60;28.11;97386.78;4983349;28;20786;-64
2022/02/09 20:16:44;;;;;;;3.10;2.28;;;;;;;26.61;28.14;97382.34;4965974;28;22293;-64
2022/02/09 20:19:09;;;;;;;6.45;2.63;;;;;;;26.61;28.21;97382.34;4955054;28;20037;-64
2022/02/09 20:21:35;;;;;;;5.30;2.50;;;;;;;26.61;28.08;97380.59;4975920;28;20030;-64
2022/02/09 20:24:04;;;;;;;4.15;2.05;;;;;;;26.59;28.27;97371.91;4961884;28;20045;-65
2022/02/09 20:26:29;;;;;;;4.07;2.28;;;;;;;26.63;28.21;97382.28;4970923;28;20570;-64
2022/02/09 20:29:21;;;;;;;3.40;2.00;;;;;;;26.61;28.24;97377.97;4972610;28;20037;-64
2022/02/09 20:32:29;;;;;;;2.50;1.98;;;;;;;26.61;28.44;97377.97;4973014;28;20996;-64
2022/02/09 20:34:32;;;;;;;3.10;2.20;;;;;;;26.64;28.35;97381.34;4967473;28;20049;-64
2022/02/09 20:36:57;;;;;;;2.58;1.73;;;;;;;26.64;28.38;97378.72;4991801;28;20031;-63
2022/02/09 20:39:28;;;;;;;4.57;2.05;;;;;;;26.64;28.29;97386.63;4988691;28;20034;-64
2022/02/09 20:41:56;;;;;;;2.20;1.70;;;;;;;26.64;28.58;97389.25;4987762;28;20022;-65
2022/02/09 20:44:40;;;;;;;4.10;1.90;;;;;;;26.64;28.57;97386.63;4993133;28;20033;-63
2022/02/09 20:47:05;;;;;;;3.67;1.80;;;;;;;26.65;28.50;97380.44;4991534;28;20037;-63
2022/02/09 20:49:34;;;;;;;3.22;2.03;;;;;;;26.65;28.60;97372.56;4988281;28;20600;-64
2022/02/09 20:51:59;;;;;;;3.05;2.00;;;;;;;26.66;28.56;97384.78;4987824;28;20547;-63
2022/02/09 20:54:25;;;;;;;3.97;1.80;;;;;;;26.67;28.45;97386.47;5002860;28;20091;-64
2022/02/09 20:56:50;;;;;;;6.38;2.10;;;;;;;26.67;28.70;97381.22;4985389;28;20250;-64
2022/02/09 20:59:17;;;;;;;2.22;1.65;;;;;;;26.67;28.65;97381.22;4996811;28;20153;-64
2022/02/09 21:01:53;;;;;;;2.67;1.73;;;;;;;26.67;28.63;97378.59;4985210;28;20029;-64
2022/02/09 21:04:23;;;;;;;3.90;1.70;;;;;;;26.67;28.55;97370.69;4988385;28;20049;-64
2022/02/09 21:07:16;;;;;;;2.30;1.65;;;;;;;26.67;28.69;97375.97;4986026;28;20029;-64
2022/02/09 21:09:52;;;;;;;2.90;1.73;;;;;;;26.68;28.74;97382.91;4989453;28;20041;-64
2022/02/09 21:12:45;;;;;;;3.25;1.60;;;;;;;26.67;28.78;97378.59;4988879;28;20409;-63
2022/02/09 21:20:42;;;;;;;4.20;1.60;;;;;;;26.65;28.92;97369.94;4990380;28;20410;-63
2022/02/09 21:55:40;;;;;;;6.50;2.17;;;;;;;26.65;28.72;97364.69;4974083;28;20133;-64
2022/02/09 21:58:21;;;;;;;2.47;1.40;;;;;;;26.61;28.81;97362.19;4997968;28;20060;-62
2022/02/09 22:01:04;;;;;;;3.22;1.90;;;;;;;26.63;28.78;97358.63;5003956;28;20248;-64
2022/02/09 22:19:58;;;;;;;;;;;;;;;;;;;;;
2022/02/09 22:27:40;;;;;;;4.30;1.40;;;;;;;26.62;29.06;97336.78;4988913;28;20138;-61
2022/02/09 22:56:51;;;;;;;3.75;1.92;;;;;;;26.59;28.95;97321.13;4991297;28;20036;-64
2022/02/09 22:59:30;;;;;;;3.85;1.90;;;;;;;26.59;28.81;97316.72;4992611;28;20344;-64
2022/02/09 23:02:01;;;;;;;5.60;1.90;;;;;;;26.59;28.88;97316.72;4990129;28;20037;-64
2022/02/09 23:12:09;;;;;;;4.00;1.63;;;;;;;26.59;28.79;97319.34;4979862;28;20391;-64
2022/02/09 23:22:49;;;;;;;1.92;1.45;;;;;;;26.60;28.85;97310.56;5004397;28;20060;-64
